sensor_id;sensor_type;location;lat;lon;timestamp;pressure;altitude;pressure_sealevel;temperature;humidity
66385;BME280;53426;55.872;37.462;2023-07-31T00:00:55;98442.38;;;15.90;73.78
66385;BME280;53426;55.872;37.462;2023-07-31T00:03:21;98440.06;;;15.87;74.10
66385;BME280;53426;55.872;37.462;2023-07-31T00:05:47;98444.34;;;15.82;73.96
66385;BME280;53426;55.872;37.462;2023-07-31T00:08:14;98446.19;;;15.81;74.55
66385;BME280;53426;55.872;37.462;2023-07-31T00:10:40;98436.63;;;15.72;74.02
66385;BME280;53426;55.872;37.462;2023-07-31T00:13:06;98449.22;;;15.78;74.45
66385;BME280;53426;55.872;37.462;2023-07-31T00:15:31;98439.69;;;15.69;74.64
66385;BME280;53426;55.872;37.462;2023-07-31T00:17:57;98436.50;;;15.59;74.72
66385;BME280;53426;55.872;37.462;2023-07-31T00:20:23;98457.53;;;15.69;75.09
66385;BME280;53426;55.872;37.462;2023-07-31T00:22:49;98446.44;;;15.65;75.62
66385;BME280;53426;55.872;37.462;2023-07-31T00:25:15;98457.47;;;15.62;75.80
66385;BME280;53426;55.872;37.462;2023-07-31T00:27:41;98456.81;;;15.60;76.17
66385;BME280;53426;55.872;37.462;2023-07-31T00:30:11;98442.28;;;15.48;76.48
66385;BME280;53426;55.872;37.462;2023-07-31T00:32:37;98460.25;;;15.54;76.08
66385;BME280;53426;55.872;37.462;2023-07-31T00:35:03;98462.91;;;15.54;76.08
66385;BME280;53426;55.872;37.462;2023-07-31T00:37:31;98456.09;;;15.52;75.62
66385;BME280;53426;55.872;37.462;2023-07-31T00:39:57;98440.34;;;15.42;75.45
66385;BME280;53426;55.872;37.462;2023-07-31T00:42:23;98451.47;;;15.45;75.37
66385;BME280;53426;55.872;37.462;2023-07-31T00:44:49;98441.53;;;15.39;74.90
66385;BME280;53426;55.872;37.462;2023-07-31T00:47:15;98429.97;;;15.32;75.12
66385;BME280;53426;55.872;37.462;2023-07-31T00:49:41;98446.53;;;15.42;74.87
66385;BME280;53426;55.872;37.462;2023-07-31T00:52:10;98416.91;;;15.23;75.17
66385;BME280;53426;55.872;37.462;2023-07-31T00:54:36;98445.22;;;15.38;74.87
66385;BME280;53426;55.872;37.462;2023-07-31T00:57:03;98431.59;;;15.33;74.85
66385;BME280;53426;55.872;37.462;2023-07-31T00:59:29;98434.84;;;15.29;74.92
66385;BME280;53426;55.872;37.462;2023-07-31T01:01:56;98445.97;;;15.32;75.08
66385;BME280;53426;55.872;37.462;2023-07-31T01:04:22;98423.91;;;15.24;75.03
66385;BME280;53426;55.872;37.462;2023-07-31T01:07:10;98440.66;;;15.32;75.14
66385;BME280;53426;55.872;37.462;2023-07-31T01:09:44;98431.91;;;15.24;75.16
66385;BME280;53426;55.872;37.462;2023-07-31T01:12:15;98444.69;;;15.28;75.38
66385;BME280;53426;55.872;37.462;2023-07-31T01:17:32;98454.06;;;15.24;75.05
66385;BME280;53426;55.872;37.462;2023-07-31T01:20:01;98427.41;;;15.10;75.76
66385;BME280;53426;55.872;37.462;2023-07-31T01:22:48;98451.13;;;15.19;75.65
66385;BME280;53426;55.872;37.462;2023-07-31T01:28:14;98446.97;;;15.17;76.33
66385;BME280;53426;55.872;37.462;2023-07-31T01:30:48;98439.91;;;15.09;76.59
66385;BME280;53426;55.872;37.462;2023-07-31T01:33:16;98451.88;;;15.13;76.46
66385;BME280;53426;55.872;37.462;2023-07-31T01:35:44;98447.53;;;15.12;76.07
66385;BME280;53426;55.872;37.462;2023-07-31T01:38:11;98447.34;;;15.14;76.43
66385;BME280;53426;55.872;37.462;2023-07-31T01:40:41;98443.22;;;15.11;76.50
66385;BME280;53426;55.872;37.462;2023-07-31T01:43:09;98451.50;;;15.16;76.13
66385;BME280;53426;55.872;37.462;2023-07-31T01:45:35;98444.97;;;15.19;76.12
66385;BME280;53426;55.872;37.462;2023-07-31T01:48:01;98444.63;;;15.22;75.68
66385;BME280;53426;55.872;37.462;2023-07-31T01:50:27;98435.31;;;15.18;75.43
66385;BME280;53426;55.872;37.462;2023-07-31T01:52:53;98446.72;;;15.26;75.20
66385;BME280;53426;55.872;37.462;2023-07-31T01:55:18;98450.00;;;15.28;74.93
66385;BME280;53426;55.872;37.462;2023-07-31T01:57:45;98447.34;;;15.28;75.22
66385;BME280;53426;55.872;37.462;2023-07-31T02:00:12;98441.56;;;15.25;74.92
66385;BME280;53426;55.872;37.462;2023-07-31T02:02:38;98445.16;;;15.32;75.46
66385;BME280;53426;55.872;37.462;2023-07-31T02:05:05;98442.22;;;15.27;74.97
66385;BME280;53426;55.872;37.462;2023-07-31T02:07:31;98443.09;;;15.34;74.86
66385;BME280;53426;55.872;37.462;2023-07-31T02:09:57;98433.66;;;15.31;74.56
66385;BME280;53426;55.872;37.462;2023-07-31T02:12:24;98450.63;;;15.45;74.95
66385;BME280;53426;55.872;37.462;2023-07-31T02:14:49;98428.59;;;15.36;74.80
66385;BME280;53426;55.872;37.462;2023-07-31T02:17:15;98432.53;;;15.40;74.40
66385;BME280;53426;55.872;37.462;2023-07-31T02:20:01;98418.47;;;15.32;74.24
66385;BME280;53426;55.872;37.462;2023-07-31T02:22:32;98461.69;;;15.57;73.79
66385;BME280;53426;55.872;37.462;2023-07-31T02:24:59;98453.88;;;15.55;73.87
66385;BME280;53426;55.872;37.462;2023-07-31T02:27:25;98437.41;;;15.52;73.41
66385;BME280;53426;55.872;37.462;2023-07-31T02:29:53;98451.69;;;15.59;73.89
66385;BME280;53426;55.872;37.462;2023-07-31T02:32:21;98459.69;;;15.59;73.24
66385;BME280;53426;55.872;37.462;2023-07-31T02:34:47;98454.97;;;15.61;72.17
66385;BME280;53426;55.872;37.462;2023-07-31T02:37:13;98432.22;;;15.50;72.36
66385;BME280;53426;55.872;37.462;2023-07-31T02:39:39;98439.78;;;15.61;71.64
66385;BME280;53426;55.872;37.462;2023-07-31T02:42:05;98427.00;;;15.57;71.81
66385;BME280;53426;55.872;37.462;2023-07-31T02:44:32;98442.78;;;15.73;71.70
66385;BME280;53426;55.872;37.462;2023-07-31T02:46:57;98448.03;;;15.81;71.33
66385;BME280;53426;55.872;37.462;2023-07-31T02:49:23;98450.97;;;15.86;71.03
66385;BME280;53426;55.872;37.462;2023-07-31T02:51:49;98443.22;;;15.91;70.60
66385;BME280;53426;55.872;37.462;2023-07-31T02:54:15;98445.88;;;15.91;70.52
66385;BME280;53426;55.872;37.462;2023-07-31T02:56:41;98434.44;;;15.97;70.37
66385;BME280;53426;55.872;37.462;2023-07-31T02:59:07;98431.56;;;15.99;70.37
66385;BME280;53426;55.872;37.462;2023-07-31T03:01:33;98446.53;;;16.14;69.99
66385;BME280;53426;55.872;37.462;2023-07-31T03:03:58;98442.47;;;16.18;69.75
66385;BME280;53426;55.872;37.462;2023-07-31T03:06:25;98439.22;;;16.23;69.72
66385;BME280;53426;55.872;37.462;2023-07-31T03:08:53;98432.41;;;16.20;69.74
66385;BME280;53426;55.872;37.462;2023-07-31T03:11:19;98447.28;;;16.29;69.56
66385;BME280;53426;55.872;37.462;2023-07-31T03:13:45;98442.31;;;16.26;69.32
66385;BME280;53426;55.872;37.462;2023-07-31T03:16:11;98457.84;;;16.38;69.12
66385;BME280;53426;55.872;37.462;2023-07-31T03:18:37;98449.44;;;16.41;69.07
66385;BME280;53426;55.872;37.462;2023-07-31T03:21:04;98431.94;;;16.38;68.72
66385;BME280;53426;55.872;37.462;2023-07-31T03:23:30;98439.31;;;17.13;67.34
66385;BME280;53426;55.872;37.462;2023-07-31T03:25:59;98440.97;;;18.29;64.15
66385;BME280;53426;55.872;37.462;2023-07-31T03:28:28;98439.72;;;19.17;61.01
66385;BME280;53426;55.872;37.462;2023-07-31T03:30:55;98434.59;;;19.73;58.87
66385;BME280;53426;55.872;37.462;2023-07-31T03:33:21;98445.94;;;19.75;58.45
66385;BME280;53426;55.872;37.462;2023-07-31T03:35:47;98452.41;;;20.05;57.29
66385;BME280;53426;55.872;37.462;2023-07-31T03:38:13;98451.28;;;20.76;55.96
66385;BME280;53426;55.872;37.462;2023-07-31T03:40:39;98454.25;;;21.54;53.83
66385;BME280;53426;55.872;37.462;2023-07-31T03:43:05;98436.56;;;22.24;51.87
66385;BME280;53426;55.872;37.462;2023-07-31T03:45:31;98448.06;;;22.84;49.88
66385;BME280;53426;55.872;37.462;2023-07-31T03:47:58;98425.63;;;23.30;48.65
66385;BME280;53426;55.872;37.462;2023-07-31T03:50:25;98436.25;;;23.72;47.65
66385;BME280;53426;55.872;37.462;2023-07-31T03:52:52;98446.44;;;24.10;46.32
66385;BME280;53426;55.872;37.462;2023-07-31T03:55:19;98441.13;;;24.43;45.60
66385;BME280;53426;55.872;37.462;2023-07-31T03:57:47;98423.41;;;24.86;44.64
66385;BME280;53426;55.872;37.462;2023-07-31T04:00:13;98438.16;;;25.28;43.48
66385;BME280;53426;55.872;37.462;2023-07-31T04:02:41;98443.97;;;25.80;42.19
66385;BME280;53426;55.872;37.462;2023-07-31T04:05:07;98430.97;;;26.04;41.12
66385;BME280;53426;55.872;37.462;2023-07-31T04:07:34;98442.63;;;26.05;41.32
66385;BME280;53426;55.872;37.462;2023-07-31T04:10:00;98445.84;;;26.50;40.07
66385;BME280;53426;55.872;37.462;2023-07-31T04:12:26;98441.75;;;26.85;39.26
66385;BME280;53426;55.872;37.462;2023-07-31T04:14:52;98443.94;;;27.20;38.52
66385;BME280;53426;55.872;37.462;2023-07-31T04:17:18;98437.56;;;27.46;38.05
66385;BME280;53426;55.872;37.462;2023-07-31T04:19:44;98398.50;;;27.05;37.70
66385;BME280;53426;55.872;37.462;2023-07-31T04:22:10;98444.28;;;27.80;37.33
66385;BME280;53426;55.872;37.462;2023-07-31T04:24:37;98449.56;;;28.12;36.63
66385;BME280;53426;55.872;37.462;2023-07-31T04:27:04;98453.19;;;28.58;35.19
66385;BME280;53426;55.872;37.462;2023-07-31T04:29:31;98434.69;;;28.91;35.29
66385;BME280;53426;55.872;37.462;2023-07-31T04:31:57;98440.63;;;29.33;33.98
66385;BME280;53426;55.872;37.462;2023-07-31T04:34:26;98450.66;;;29.53;33.42
66385;BME280;53426;55.872;37.462;2023-07-31T04:36:52;98449.13;;;29.96;33.18
66385;BME280;53426;55.872;37.462;2023-07-31T04:39:18;98456.56;;;30.34;32.56
66385;BME280;53426;55.872;37.462;2023-07-31T04:41:48;98465.91;;;30.67;31.79
66385;BME280;53426;55.872;37.462;2023-07-31T04:44:14;98451.69;;;31.04;31.53
66385;BME280;53426;55.872;37.462;2023-07-31T04:46:41;98452.84;;;31.51;30.69
66385;BME280;53426;55.872;37.462;2023-07-31T04:49:07;98446.66;;;31.69;29.95
66385;BME280;53426;55.872;37.462;2023-07-31T04:51:36;98432.56;;;31.99;29.51
66385;BME280;53426;55.872;37.462;2023-07-31T04:54:02;98449.50;;;32.44;29.23
66385;BME280;53426;55.872;37.462;2023-07-31T04:56:27;98447.94;;;32.57;28.83
66385;BME280;53426;55.872;37.462;2023-07-31T04:58:53;98463.25;;;32.76;28.46
66385;BME280;53426;55.872;37.462;2023-07-31T05:01:19;98461.31;;;33.09;28.42
66385;BME280;53426;55.872;37.462;2023-07-31T05:03:45;98450.06;;;33.11;27.98
66385;BME280;53426;55.872;37.462;2023-07-31T05:06:12;98453.47;;;33.49;27.50
66385;BME280;53426;55.872;37.462;2023-07-31T05:08:43;98398.00;;;33.38;26.85
66385;BME280;53426;55.872;37.462;2023-07-31T05:11:09;98465.28;;;33.90;27.14
66385;BME280;53426;55.872;37.462;2023-07-31T05:13:35;98413.94;;;33.77;26.76
66385;BME280;53426;55.872;37.462;2023-07-31T05:16:02;98466.59;;;34.20;26.99
66385;BME280;53426;55.872;37.462;2023-07-31T05:18:28;98441.28;;;34.46;26.68
66385;BME280;53426;55.872;37.462;2023-07-31T05:20:53;98450.25;;;34.73;25.82
66385;BME280;53426;55.872;37.462;2023-07-31T05:23:20;98464.81;;;34.96;25.85
66385;BME280;53426;55.872;37.462;2023-07-31T05:25:46;98429.13;;;35.13;25.39
66385;BME280;53426;55.872;37.462;2023-07-31T05:28:12;98439.22;;;35.49;24.95
66385;BME280;53426;55.872;37.462;2023-07-31T05:30:42;98446.44;;;35.76;24.35
66385;BME280;53426;55.872;37.462;2023-07-31T05:33:11;98443.66;;;36.15;24.22
66385;BME280;53426;55.872;37.462;2023-07-31T05:36:03;98431.47;;;36.33;23.64
66385;BME280;53426;55.872;37.462;2023-07-31T05:38:29;98360.44;;;36.39;23.34
66385;BME280;53426;55.872;37.462;2023-07-31T05:41:18;98313.47;;;36.27;23.43
66385;BME280;53426;55.872;37.462;2023-07-31T05:43:47;98365.13;;;35.78;23.34
66385;BME280;53426;55.872;37.462;2023-07-31T05:46:13;98463.75;;;37.19;23.13
66385;BME280;53426;55.872;37.462;2023-07-31T05:48:39;98428.13;;;37.35;22.69
66385;BME280;53426;55.872;37.462;2023-07-31T05:51:05;98414.41;;;37.55;22.50
66385;BME280;53426;55.872;37.462;2023-07-31T05:53:33;98473.19;;;37.94;22.36
66385;BME280;53426;55.872;37.462;2023-07-31T05:55:59;98459.50;;;38.06;22.09
66385;BME280;53426;55.872;37.462;2023-07-31T05:58:25;98438.81;;;38.12;21.84
66385;BME280;53426;55.872;37.462;2023-07-31T06:00:51;98464.50;;;38.13;21.66
66385;BME280;53426;55.872;37.462;2023-07-31T06:03:22;98435.16;;;38.20;20.97
66385;BME280;53426;55.872;37.462;2023-07-31T06:05:48;98470.06;;;38.33;21.22
66385;BME280;53426;55.872;37.462;2023-07-31T06:08:15;98458.19;;;38.54;20.72
66385;BME280;53426;55.872;37.462;2023-07-31T06:10:41;98431.38;;;38.25;20.65
66385;BME280;53426;55.872;37.462;2023-07-31T06:13:08;98443.59;;;38.44;20.88
66385;BME280;53426;55.872;37.462;2023-07-31T06:15:34;98432.38;;;38.82;19.91
66385;BME280;53426;55.872;37.462;2023-07-31T06:18:00;98460.34;;;39.35;19.53
66385;BME280;53426;55.872;37.462;2023-07-31T06:20:29;98446.81;;;38.88;20.19
66385;BME280;53426;55.872;37.462;2023-07-31T06:22:56;98425.38;;;39.30;19.29
66385;BME280;53426;55.872;37.462;2023-07-31T06:25:25;98425.78;;;39.65;18.87
66385;BME280;53426;55.872;37.462;2023-07-31T06:27:51;98452.81;;;39.92;18.56
66385;BME280;53426;55.872;37.462;2023-07-31T06:30:18;98449.63;;;40.42;18.28
66385;BME280;53426;55.872;37.462;2023-07-31T06:32:48;98453.16;;;40.55;18.40
66385;BME280;53426;55.872;37.462;2023-07-31T06:35:26;98433.44;;;40.72;18.09
66385;BME280;53426;55.872;37.462;2023-07-31T06:37:54;98456.31;;;41.25;17.68
66385;BME280;53426;55.872;37.462;2023-07-31T06:49:02;98374.19;;;40.12;17.71
66385;BME280;53426;55.872;37.462;2023-07-31T06:55:17;98443.66;;;40.68;17.41
66385;BME280;53426;55.872;37.462;2023-07-31T06:57:47;98459.84;;;40.54;17.43
66385;BME280;53426;55.872;37.462;2023-07-31T07:00:16;98420.34;;;39.81;17.75
66385;BME280;53426;55.872;37.462;2023-07-31T07:03:01;98464.97;;;40.52;17.26
66385;BME280;53426;55.872;37.462;2023-07-31T07:08:55;98418.94;;;40.63;16.66
66385;BME280;53426;55.872;37.462;2023-07-31T07:11:21;98432.34;;;41.48;16.57
66385;BME280;53426;55.872;37.462;2023-07-31T07:13:47;98461.44;;;41.86;16.29
66385;BME280;53426;55.872;37.462;2023-07-31T07:16:13;98460.13;;;41.64;16.60
66385;BME280;53426;55.872;37.462;2023-07-31T07:18:42;98470.97;;;41.53;16.17
66385;BME280;53426;55.872;37.462;2023-07-31T07:21:09;98459.31;;;41.63;16.37
66385;BME280;53426;55.872;37.462;2023-07-31T07:23:36;98468.50;;;40.92;16.45
66385;BME280;53426;55.872;37.462;2023-07-31T07:26:03;98459.53;;;40.83;16.21
66385;BME280;53426;55.872;37.462;2023-07-31T07:28:30;98470.94;;;40.54;17.47
66385;BME280;53426;55.872;37.462;2023-07-31T07:30:58;98451.25;;;41.58;16.33
66385;BME280;53426;55.872;37.462;2023-07-31T07:33:26;98456.66;;;42.33;16.06
66385;BME280;53426;55.872;37.462;2023-07-31T07:35:52;98462.38;;;42.98;15.25
66385;BME280;53426;55.872;37.462;2023-07-31T07:38:18;98439.44;;;42.66;15.50
66385;BME280;53426;55.872;37.462;2023-07-31T07:46:30;98473.72;;;41.38;15.57
66385;BME280;53426;55.872;37.462;2023-07-31T07:49:06;98405.69;;;40.32;16.59
66385;BME280;53426;55.872;37.462;2023-07-31T07:51:32;98443.06;;;41.18;15.90
66385;BME280;53426;55.872;37.462;2023-07-31T07:53:59;98377.41;;;40.82;15.69
66385;BME280;53426;55.872;37.462;2023-07-31T07:56:27;98457.44;;;41.99;16.26
66385;BME280;53426;55.872;37.462;2023-07-31T07:58:57;98467.88;;;42.21;14.96
66385;BME280;53426;55.872;37.462;2023-07-31T08:01:24;98464.44;;;42.28;14.87
66385;BME280;53426;55.872;37.462;2023-07-31T08:03:50;98462.56;;;41.65;15.53
66385;BME280;53426;55.872;37.462;2023-07-31T08:06:16;98439.31;;;41.26;15.59
66385;BME280;53426;55.872;37.462;2023-07-31T08:08:43;98426.59;;;40.97;16.26
66385;BME280;53426;55.872;37.462;2023-07-31T08:11:08;98437.53;;;41.65;15.73
66385;BME280;53426;55.872;37.462;2023-07-31T08:13:34;98459.66;;;42.63;15.13
66385;BME280;53426;55.872;37.462;2023-07-31T08:16:03;98476.16;;;42.91;15.03
66385;BME280;53426;55.872;37.462;2023-07-31T08:18:31;98448.75;;;42.54;14.46
66385;BME280;53426;55.872;37.462;2023-07-31T08:20:57;98451.38;;;42.67;14.82
66385;BME280;53426;55.872;37.462;2023-07-31T08:23:23;98410.84;;;42.88;14.21
66385;BME280;53426;55.872;37.462;2023-07-31T08:25:49;98438.94;;;42.80;14.69
66385;BME280;53426;55.872;37.462;2023-07-31T08:28:16;98458.78;;;42.24;14.97
66385;BME280;53426;55.872;37.462;2023-07-31T08:30:44;98456.19;;;42.31;15.03
66385;BME280;53426;55.872;37.462;2023-07-31T08:33:14;98470.75;;;42.98;14.42
66385;BME280;53426;55.872;37.462;2023-07-31T08:35:49;98352.88;;;42.52;14.44
66385;BME280;53426;55.872;37.462;2023-07-31T08:42:14;98417.06;;;42.24;14.68
66385;BME280;53426;55.872;37.462;2023-07-31T08:44:47;98479.28;;;42.51;15.05
66385;BME280;53426;55.872;37.462;2023-07-31T08:47:15;98440.75;;;40.37;16.38
66385;BME280;53426;55.872;37.462;2023-07-31T08:49:42;98456.25;;;38.54;18.07
66385;BME280;53426;55.872;37.462;2023-07-31T08:52:14;98377.00;;;36.04;19.40
66385;BME280;53426;55.872;37.462;2023-07-31T08:54:40;98434.66;;;35.44;20.25
66385;BME280;53426;55.872;37.462;2023-07-31T08:57:09;98443.69;;;34.83;21.80
66385;BME280;53426;55.872;37.462;2023-07-31T08:59:36;98463.97;;;34.51;22.17
66385;BME280;53426;55.872;37.462;2023-07-31T09:02:07;98468.53;;;33.65;22.58
66385;BME280;53426;55.872;37.462;2023-07-31T09:04:34;98469.03;;;32.56;23.91
66385;BME280;53426;55.872;37.462;2023-07-31T09:07:01;98449.91;;;33.21;23.61
66385;BME280;53426;55.872;37.462;2023-07-31T09:09:31;98463.72;;;33.30;23.34
66385;BME280;53426;55.872;37.462;2023-07-31T09:12:05;98447.81;;;32.29;24.97
66385;BME280;53426;55.872;37.462;2023-07-31T09:14:33;98335.47;;;30.78;25.69
66385;BME280;53426;55.872;37.462;2023-07-31T09:16:59;98435.44;;;32.08;25.21
66385;BME280;53426;55.872;37.462;2023-07-31T09:19:36;98427.06;;;32.23;24.98
66385;BME280;53426;55.872;37.462;2023-07-31T09:22:06;98321.91;;;30.68;26.00
66385;BME280;53426;55.872;37.462;2023-07-31T09:24:33;98459.34;;;31.07;26.81
66385;BME280;53426;55.872;37.462;2023-07-31T09:27:01;98468.84;;;30.37;27.02
66385;BME280;53426;55.872;37.462;2023-07-31T09:33:05;98466.69;;;34.87;21.87
66385;BME280;53426;55.872;37.462;2023-07-31T09:35:49;98443.34;;;36.68;20.26
66385;BME280;53426;55.872;37.462;2023-07-31T09:42:11;98325.94;;;38.68;17.25
66385;BME280;53426;55.872;37.462;2023-07-31T09:44:41;98418.66;;;38.86;17.06
66385;BME280;53426;55.872;37.462;2023-07-31T09:47:21;98446.78;;;39.90;16.74
66385;BME280;53426;55.872;37.462;2023-07-31T09:49:48;98481.69;;;40.03;16.35
66385;BME280;53426;55.872;37.462;2023-07-31T09:52:26;98472.75;;;38.63;18.43
66385;BME280;53426;55.872;37.462;2023-07-31T09:54:53;98369.84;;;35.86;19.36
66385;BME280;53426;55.872;37.462;2023-07-31T09:57:21;98476.09;;;36.96;19.44
66385;BME280;53426;55.872;37.462;2023-07-31T10:03:07;98446.28;;;38.74;17.97
66385;BME280;53426;55.872;37.462;2023-07-31T10:05:46;98493.53;;;39.43;17.19
66385;BME280;53426;55.872;37.462;2023-07-31T10:08:28;98354.25;;;37.61;17.92
66385;BME280;53426;55.872;37.462;2023-07-31T10:10:58;98473.66;;;36.51;19.09
66385;BME280;53426;55.872;37.462;2023-07-31T10:13:25;98427.66;;;35.07;20.15
66385;BME280;53426;55.872;37.462;2023-07-31T10:16:00;98442.22;;;33.91;22.75
66385;BME280;53426;55.872;37.462;2023-07-31T10:18:30;98445.56;;;32.31;24.01
66385;BME280;53426;55.872;37.462;2023-07-31T10:20:58;98420.63;;;31.72;24.89
66385;BME280;53426;55.872;37.462;2023-07-31T10:23:24;98281.38;;;32.35;23.68
66385;BME280;53426;55.872;37.462;2023-07-31T10:26:01;98425.44;;;35.49;21.76
66385;BME280;53426;55.872;37.462;2023-07-31T10:28:29;98450.34;;;37.38;19.94
66385;BME280;53426;55.872;37.462;2023-07-31T10:30:55;98489.09;;;38.05;19.40
66385;BME280;53426;55.872;37.462;2023-07-31T10:33:21;98473.44;;;37.34;19.52
66385;BME280;53426;55.872;37.462;2023-07-31T10:35:47;98466.59;;;38.16;18.93
66385;BME280;53426;55.872;37.462;2023-07-31T10:38:19;98479.72;;;38.48;18.28
66385;BME280;53426;55.872;37.462;2023-07-31T10:40:49;98479.03;;;37.54;19.25
66385;BME280;53426;55.872;37.462;2023-07-31T10:43:24;98474.47;;;36.34;20.70
66385;BME280;53426;55.872;37.462;2023-07-31T10:45:50;98456.44;;;34.79;21.67
66385;BME280;53426;55.872;37.462;2023-07-31T10:48:17;98458.78;;;33.59;22.89
66385;BME280;53426;55.872;37.462;2023-07-31T10:50:55;98447.28;;;32.65;23.79
66385;BME280;53426;55.872;37.462;2023-07-31T10:53:31;98466.75;;;32.45;24.71
66385;BME280;53426;55.872;37.462;2023-07-31T10:56:08;98473.44;;;32.90;24.58
66385;BME280;53426;55.872;37.462;2023-07-31T10:58:36;98456.16;;;32.38;25.37
66385;BME280;53426;55.872;37.462;2023-07-31T11:01:04;98466.53;;;31.98;25.81
66385;BME280;53426;55.872;37.462;2023-07-31T11:06:10;98451.59;;;30.42;27.38
66385;BME280;53426;55.872;37.462;2023-07-31T11:08:42;98471.50;;;30.03;28.42
66385;BME280;53426;55.872;37.462;2023-07-31T11:11:11;98464.00;;;29.65;29.34
66385;BME280;53426;55.872;37.462;2023-07-31T11:13:44;98464.34;;;29.38;29.52
66385;BME280;53426;55.872;37.462;2023-07-31T11:16:13;98460.84;;;28.82;30.20
66385;BME280;53426;55.872;37.462;2023-07-31T11:18:46;98462.97;;;28.44;30.83
66385;BME280;53426;55.872;37.462;2023-07-31T11:21:14;98471.41;;;28.43;30.26
66385;BME280;53426;55.872;37.462;2023-07-31T11:23:40;98466.94;;;28.11;31.58
66385;BME280;53426;55.872;37.462;2023-07-31T11:26:07;98470.03;;;28.25;31.75
66385;BME280;53426;55.872;37.462;2023-07-31T11:28:34;98461.88;;;28.50;30.84
66385;BME280;53426;55.872;37.462;2023-07-31T11:31:01;98469.84;;;28.87;31.37
66385;BME280;53426;55.872;37.462;2023-07-31T11:33:27;98470.09;;;29.11;31.13
66385;BME280;53426;55.872;37.462;2023-07-31T11:35:53;98469.81;;;29.23;30.40
66385;BME280;53426;55.872;37.462;2023-07-31T11:40:53;98453.47;;;29.13;30.95
66385;BME280;53426;55.872;37.462;2023-07-31T11:43:20;98467.41;;;28.86;31.52
66385;BME280;53426;55.872;37.462;2023-07-31T11:45:48;98472.53;;;28.52;31.56
66385;BME280;53426;55.872;37.462;2023-07-31T11:48:22;98474.38;;;28.26;32.65
66385;BME280;53426;55.872;37.462;2023-07-31T11:50:50;98452.22;;;27.92;32.10
66385;BME280;53426;55.872;37.462;2023-07-31T11:53:18;98466.56;;;27.77;32.64
66385;BME280;53426;55.872;37.462;2023-07-31T11:55:46;98476.19;;;27.48;33.39
66385;BME280;53426;55.872;37.462;2023-07-31T11:58:14;98475.13;;;27.12;34.04
66385;BME280;53426;55.872;37.462;2023-07-31T12:00:40;98483.28;;;26.80;34.81
66385;BME280;53426;55.872;37.462;2023-07-31T12:03:07;98485.47;;;26.51;35.31
66385;BME280;53426;55.872;37.462;2023-07-31T12:05:33;98489.09;;;26.35;36.38
66385;BME280;53426;55.872;37.462;2023-07-31T12:07:59;98489.69;;;26.15;36.60
66385;BME280;53426;55.872;37.462;2023-07-31T12:10:29;98489.63;;;26.10;37.43
66385;BME280;53426;55.872;37.462;2023-07-31T12:13:22;98490.16;;;26.07;36.89
66385;BME280;53426;55.872;37.462;2023-07-31T12:15:49;98488.00;;;25.88;37.58
66385;BME280;53426;55.872;37.462;2023-07-31T12:18:20;98499.97;;;25.70;38.09
66385;BME280;53426;55.872;37.462;2023-07-31T12:20:48;98495.25;;;25.60;38.46
66385;BME280;53426;55.872;37.462;2023-07-31T12:23:19;98500.25;;;25.52;39.31
66385;BME280;53426;55.872;37.462;2023-07-31T12:28:26;98491.13;;;25.19;40.00
66385;BME280;53426;55.872;37.462;2023-07-31T12:30:51;98498.97;;;25.21;39.99
66385;BME280;53426;55.872;37.462;2023-07-31T12:33:22;98498.25;;;25.25;40.24
66385;BME280;53426;55.872;37.462;2023-07-31T12:35:48;98495.03;;;25.28;40.00
66385;BME280;53426;55.872;37.462;2023-07-31T12:38:15;98485.75;;;25.41;39.85
66385;BME280;53426;55.872;37.462;2023-07-31T12:40:41;98504.03;;;25.89;39.96
66385;BME280;53426;55.872;37.462;2023-07-31T12:43:07;98504.53;;;26.30;38.91
66385;BME280;53426;55.872;37.462;2023-07-31T12:45:34;98498.59;;;26.59;38.58
66385;BME280;53426;55.872;37.462;2023-07-31T12:48:01;98497.06;;;27.00;37.57
66385;BME280;53426;55.872;37.462;2023-07-31T12:50:27;98494.72;;;27.14;37.30
66385;BME280;53426;55.872;37.462;2023-07-31T12:52:54;98489.63;;;27.23;36.57
66385;BME280;53426;55.872;37.462;2023-07-31T12:55:21;98490.25;;;26.98;36.97
66385;BME280;53426;55.872;37.462;2023-07-31T12:57:48;98483.03;;;26.82;36.23
66385;BME280;53426;55.872;37.462;2023-07-31T13:00:14;98487.59;;;26.76;35.69
66385;BME280;53426;55.872;37.462;2023-07-31T13:02:40;98483.63;;;26.57;37.08
66385;BME280;53426;55.872;37.462;2023-07-31T13:05:07;98485.06;;;26.38;36.18
66385;BME280;53426;55.872;37.462;2023-07-31T13:07:33;98489.59;;;26.27;36.59
66385;BME280;53426;55.872;37.462;2023-07-31T13:09:59;98497.97;;;26.26;36.34
66385;BME280;53426;55.872;37.462;2023-07-31T13:12:25;98482.59;;;26.36;36.38
66385;BME280;53426;55.872;37.462;2023-07-31T13:14:51;98488.25;;;26.56;36.54
66385;BME280;53426;55.872;37.462;2023-07-31T13:17:18;98492.13;;;26.65;36.62
66385;BME280;53426;55.872;37.462;2023-07-31T13:19:44;98496.16;;;26.63;36.86
66385;BME280;53426;55.872;37.462;2023-07-31T13:22:09;98493.69;;;26.56;36.65
66385;BME280;53426;55.872;37.462;2023-07-31T13:24:35;98491.19;;;26.50;37.23
66385;BME280;53426;55.872;37.462;2023-07-31T13:27:01;98500.25;;;26.34;37.81
66385;BME280;53426;55.872;37.462;2023-07-31T13:29:27;98464.03;;;26.01;38.92
66385;BME280;53426;55.872;37.462;2023-07-31T13:31:53;98440.72;;;25.57;38.35
66385;BME280;53426;55.872;37.462;2023-07-31T13:34:19;98483.41;;;25.50;38.98
66385;BME280;53426;55.872;37.462;2023-07-31T13:36:45;98498.22;;;25.42;40.37
66385;BME280;53426;55.872;37.462;2023-07-31T13:39:12;98503.09;;;25.23;41.92
66385;BME280;53426;55.872;37.462;2023-07-31T13:41:38;98510.41;;;25.06;42.63
66385;BME280;53426;55.872;37.462;2023-07-31T13:44:04;98507.47;;;24.91;43.36